createdAt,value
2023-03-29T00:01:52.139Z,10.70
2023-03-29T00:04:20.463Z,9.10
2023-03-29T00:06:50.364Z,9.90
2023-03-29T00:09:19.831Z,7.57
2023-03-29T00:11:48.037Z,10.33
2023-03-29T00:14:16.564Z,10.68
2023-03-29T00:16:46.488Z,10.43
2023-03-29T00:19:14.787Z,12.00
2023-03-29T00:21:42.989Z,12.63
2023-03-29T00:24:11.501Z,10.97
2023-03-29T00:26:39.717Z,11.03
2023-03-29T00:29:07.952Z,10.20
2023-03-29T00:31:36.266Z,12.60
2023-03-29T00:34:04.743Z,11.67
2023-03-29T00:36:32.936Z,12.77
2023-03-29T00:39:01.179Z,10.23
2023-03-29T00:41:29.663Z,12.60
2023-03-29T00:43:59.540Z,13.47
2023-03-29T00:46:28.528Z,12.03
2023-03-29T00:48:58.347Z,9.93
2023-03-29T00:51:28.173Z,9.50
2023-03-29T00:53:57.918Z,10.47
2023-03-29T00:56:29.394Z,11.67
2023-03-29T00:58:59.302Z,10.13
2023-03-29T01:01:33.900Z,9.67
2023-03-29T01:04:04.152Z,10.97
2023-03-29T01:06:34.159Z,9.43
2023-03-29T01:09:04.164Z,11.17
2023-03-29T01:11:41.749Z,8.90
2023-03-29T01:14:15.431Z,10.93
2023-03-29T01:16:43.739Z,9.70
2023-03-29T01:19:13.941Z,9.57
2023-03-29T01:21:47.714Z,8.58
2023-03-29T01:24:18.097Z,8.43
2023-03-29T01:26:48.893Z,9.00
2023-03-29T01:29:34.345Z,9.08
2023-03-29T01:32:10.149Z,8.97
2023-03-29T01:34:40.053Z,8.10
2023-03-29T01:37:10.084Z,8.47
2023-03-29T01:39:38.340Z,9.10
2023-03-29T01:42:08.426Z,9.47
2023-03-29T01:44:41.101Z,10.00
2023-03-29T01:47:13.865Z,8.93
2023-03-29T01:49:43.704Z,9.33
2023-03-29T01:52:13.482Z,10.43
2023-03-29T01:54:43.271Z,9.00
2023-03-29T01:57:12.627Z,9.83
2023-03-29T01:59:43.286Z,8.63
2023-03-29T02:02:14.566Z,8.58
2023-03-29T02:04:46.263Z,10.30
2023-03-29T02:07:15.940Z,9.63
2023-03-29T02:09:44.632Z,10.27
2023-03-29T02:12:13.331Z,8.50
2023-03-29T02:14:41.572Z,9.10
2023-03-29T02:17:14.242Z,8.57
2023-03-29T02:19:43.173Z,10.60
2023-03-29T02:22:11.508Z,8.83
2023-03-29T02:24:42.261Z,8.53
2023-03-29T02:27:10.819Z,10.10
2023-03-29T02:29:39.094Z,9.23
2023-03-29T02:32:08.845Z,8.57
2023-03-29T02:34:40.123Z,9.80
2023-03-29T02:37:13.086Z,9.30
2023-03-29T02:39:41.952Z,9.23
2023-03-29T02:42:10.503Z,8.95
2023-03-29T02:44:41.500Z,8.70
2023-03-29T02:47:11.292Z,9.73
2023-03-29T02:49:40.108Z,9.43
2023-03-29T02:52:13.262Z,9.10
2023-03-29T02:54:43.349Z,12.07
2023-03-29T02:57:12.425Z,10.47
2023-03-29T02:59:42.744Z,7.90
2023-03-29T03:02:13.152Z,7.77
2023-03-29T03:04:43.143Z,8.80
2023-03-29T03:07:11.832Z,9.03
2023-03-29T03:09:40.182Z,10.07
2023-03-29T03:12:09.802Z,9.80
2023-03-29T03:14:38.093Z,9.43
2023-03-29T03:17:06.638Z,8.57
2023-03-29T03:19:35.030Z,9.47
2023-03-29T03:22:04.949Z,10.37
2023-03-29T03:24:33.397Z,9.67
2023-03-29T03:27:01.899Z,8.80
2023-03-29T03:29:30.184Z,8.77
2023-03-29T03:32:04.110Z,9.77
2023-03-29T03:34:52.717Z,11.57
2023-03-29T03:37:23.533Z,11.50
2023-03-29T03:39:51.944Z,11.30
2023-03-29T03:42:21.532Z,10.23
2023-03-29T03:44:50.201Z,13.20
2023-03-29T03:47:23.515Z,12.10
2023-03-29T03:49:53.265Z,12.93
2023-03-29T03:52:27.498Z,13.37
2023-03-29T03:54:55.970Z,13.57
2023-03-29T03:57:28.997Z,13.97
2023-03-29T03:59:58.982Z,13.47
2023-03-29T04:04:56.397Z,14.45
2023-03-29T04:07:27.555Z,13.27
2023-03-29T04:10:00.377Z,13.93
2023-03-29T04:12:33.201Z,12.93
2023-03-29T04:15:01.418Z,14.77
2023-03-29T04:17:30.293Z,14.70
2023-03-29T04:20:02.044Z,10.80
2023-03-29T04:22:32.099Z,12.87
2023-03-29T04:25:00.696Z,11.50
2023-03-29T04:27:47.040Z,11.23
2023-03-29T04:30:26.510Z,11.53
2023-03-29T04:33:08.262Z,10.53
2023-03-29T04:35:37.056Z,13.00
2023-03-29T04:38:07.305Z,10.63
2023-03-29T04:40:35.581Z,12.27
2023-03-29T04:43:06.546Z,11.00
2023-03-29T04:45:34.880Z,10.27
2023-03-29T04:48:08.197Z,9.20
2023-03-29T04:50:38.385Z,10.28
2023-03-29T04:53:07.488Z,9.97
2023-03-29T04:55:35.844Z,11.70
2023-03-29T04:58:06.033Z,11.05
2023-03-29T05:00:38.766Z,11.20
2023-03-29T05:03:10.366Z,12.63
2023-03-29T05:05:41.259Z,10.93
2023-03-29T05:08:10.653Z,10.83
2023-03-29T05:10:42.277Z,11.07
2023-03-29T05:13:11.032Z,10.60
2023-03-29T05:15:41.377Z,10.47
2023-03-29T05:18:10.511Z,10.70
2023-03-29T05:20:40.346Z,11.60
2023-03-29T05:23:10.448Z,10.33
2023-03-29T05:25:57.113Z,12.13
2023-03-29T05:28:25.470Z,11.73
2023-03-29T05:31:01.718Z,11.17
2023-03-29T05:33:30.783Z,11.00
2023-03-29T05:36:00.421Z,10.53
2023-03-29T05:38:31.086Z,10.38
2023-03-29T05:41:00.725Z,9.45
2023-03-29T05:43:34.656Z,10.72
2023-03-29T05:46:03.434Z,10.73
2023-03-29T05:48:32.628Z,8.88
2023-03-29T05:51:01.635Z,9.23
2023-03-29T05:53:31.400Z,8.80
2023-03-29T05:56:02.011Z,8.05
2023-03-29T05:58:31.224Z,9.45
2023-03-29T06:01:00.508Z,9.33
2023-03-29T06:03:38.506Z,7.40
2023-03-29T06:06:08.266Z,9.00
2023-03-29T06:08:37.565Z,8.35
2023-03-29T06:11:16.604Z,7.57
2023-03-29T06:13:58.883Z,10.07
2023-03-29T06:16:27.507Z,7.43
2023-03-29T06:18:56.406Z,7.67
2023-03-29T06:21:26.641Z,7.20
2023-03-29T06:23:55.769Z,7.25
2023-03-29T06:26:24.842Z,7.83
2023-03-29T06:28:53.373Z,7.00
2023-03-29T06:31:21.804Z,5.97
2023-03-29T06:33:52.096Z,8.28
2023-03-29T06:36:22.352Z,7.40
2023-03-29T06:38:51.296Z,7.47
2023-03-29T06:41:21.394Z,7.40
2023-03-29T06:43:57.833Z,6.93
2023-03-29T06:46:28.138Z,5.45
2023-03-29T06:48:58.141Z,5.37
2023-03-29T06:51:29.316Z,6.00
2023-03-29T06:53:57.963Z,7.30
2023-03-29T06:56:26.701Z,6.33
2023-03-29T06:58:56.998Z,5.83
2023-03-29T07:01:36.646Z,5.47
2023-03-29T07:06:46.498Z,6.65
2023-03-29T07:09:19.585Z,6.23
2023-03-29T07:12:06.560Z,4.78
2023-03-29T07:14:36.515Z,4.15
2023-03-29T07:17:05.921Z,4.87
2023-03-29T07:19:35.877Z,2.97
2023-03-29T07:22:11.960Z,3.60
2023-03-29T07:24:42.164Z,3.20
2023-03-29T07:27:10.707Z,3.95
2023-03-29T07:29:39.215Z,5.07
2023-03-29T07:32:08.340Z,4.93
2023-03-29T07:34:48.197Z,6.37
2023-03-29T07:37:21.507Z,3.73
2023-03-29T07:39:51.416Z,3.02
2023-03-29T07:42:21.629Z,4.62
2023-03-29T07:44:50.476Z,3.50
2023-03-29T07:47:19.646Z,5.40
2023-03-29T07:49:48.509Z,3.65
2023-03-29T07:52:17.400Z,4.50
2023-03-29T07:54:46.091Z,2.87
2023-03-29T07:57:19.310Z,4.07
2023-03-29T07:59:53.902Z,6.03
2023-03-29T08:02:24.195Z,4.58
2023-03-29T08:04:56.890Z,2.42
2023-03-29T08:07:27.784Z,1.60
2023-03-29T08:10:08.962Z,3.10
2023-03-29T08:12:56.586Z,3.00
2023-03-29T08:15:38.506Z,2.72
2023-03-29T08:18:08.034Z,2.40
2023-03-29T08:20:36.996Z,2.27
2023-03-29T08:23:05.402Z,2.33
2023-03-29T08:25:52.062Z,1.63
2023-03-29T08:28:21.250Z,1.23
2023-03-29T08:30:51.330Z,1.67
2023-03-29T08:33:20.297Z,2.33
2023-03-29T08:35:50.700Z,1.80
2023-03-29T08:38:27.714Z,1.95
2023-03-29T08:40:56.982Z,1.63
2023-03-29T08:43:45.057Z,1.67
2023-03-29T08:46:30.920Z,1.90
2023-03-29T08:48:59.449Z,1.30
2023-03-29T08:51:32.485Z,1.83
2023-03-29T08:54:02.628Z,1.40
2023-03-29T08:56:37.571Z,1.67
2023-03-29T08:59:22.089Z,1.50
2023-03-29T09:01:53.016Z,1.57
2023-03-29T09:06:58.183Z,2.12
2023-03-29T09:09:29.948Z,1.87
2023-03-29T09:12:11.860Z,1.83
2023-03-29T09:14:49.236Z,1.80
2023-03-29T09:17:21.893Z,1.97
2023-03-29T09:20:08.565Z,2.30
2023-03-29T09:22:41.653Z,1.90
2023-03-29T09:25:25.033Z,2.13
2023-03-29T09:27:59.102Z,2.12
2023-03-29T09:30:31.339Z,2.20
2023-03-29T09:33:05.898Z,2.10
2023-03-29T09:35:37.732Z,1.83
2023-03-29T09:38:09.873Z,1.83
2023-03-29T09:40:40.023Z,1.90
2023-03-29T09:43:11.872Z,1.23
2023-03-29T09:45:41.804Z,2.85
2023-03-29T09:48:14.752Z,1.97
2023-03-29T09:50:46.927Z,1.45
2023-03-29T09:53:16.401Z,1.90
2023-03-29T09:55:49.085Z,1.37
2023-03-29T09:58:31.116Z,2.03
2023-03-29T10:01:01.027Z,1.00
2023-03-29T10:03:31.055Z,1.77
2023-03-29T10:06:06.530Z,1.55
2023-03-29T10:08:39.250Z,1.63
2023-03-29T10:11:10.077Z,1.87
2023-03-29T10:13:40.428Z,1.45
2023-03-29T10:16:10.010Z,1.37
2023-03-29T10:18:42.394Z,1.40
2023-03-29T10:21:12.354Z,1.90
2023-03-29T10:23:41.189Z,1.40
2023-03-29T10:26:13.909Z,2.23
2023-03-29T10:28:42.799Z,1.35
2023-03-29T10:31:12.560Z,1.83
2023-03-29T10:33:41.738Z,1.57
2023-03-29T10:36:10.679Z,1.10
2023-03-29T10:38:39.468Z,1.47
2023-03-29T10:41:10.560Z,1.33
2023-03-29T10:43:40.607Z,1.60
2023-03-29T10:46:12.331Z,1.87
2023-03-29T10:48:41.383Z,1.60
2023-03-29T10:51:09.603Z,1.63
2023-03-29T10:53:38.577Z,1.50
2023-03-29T10:56:23.444Z,1.33
2023-03-29T10:58:56.658Z,1.62
2023-03-29T11:01:29.690Z,1.70
2023-03-29T11:04:04.138Z,1.93
2023-03-29T11:06:34.326Z,1.50
2023-03-29T11:09:04.685Z,2.35
2023-03-29T11:11:47.108Z,1.40
2023-03-29T11:14:16.920Z,1.20
2023-03-29T11:16:47.397Z,1.12
2023-03-29T11:19:17.273Z,1.57
2023-03-29T11:21:47.481Z,1.60
2023-03-29T11:24:17.597Z,0.77
2023-03-29T11:26:56.147Z,0.97
2023-03-29T11:29:26.993Z,1.20
2023-03-29T11:32:03.368Z,1.15
2023-03-29T11:34:37.146Z,1.20
2023-03-29T11:37:09.841Z,1.10
2023-03-29T11:39:43.421Z,1.40
2023-03-29T11:42:19.539Z,1.03
2023-03-29T11:44:48.953Z,1.60
2023-03-29T11:47:18.969Z,1.57
2023-03-29T11:49:56.868Z,1.70
2023-03-29T11:52:29.997Z,1.40
2023-03-29T11:55:12.257Z,1.10
2023-03-29T11:57:45.419Z,0.87
2023-03-29T12:00:15.631Z,1.73
2023-03-29T12:02:48.664Z,1.40
2023-03-29T12:05:24.927Z,1.63
2023-03-29T12:07:55.148Z,1.23
2023-03-29T12:10:26.390Z,1.33
2023-03-29T12:15:26.707Z,1.35
2023-03-29T12:18:13.154Z,1.27
2023-03-29T12:20:42.078Z,1.20
2023-03-29T12:23:13.535Z,0.90
2023-03-29T12:25:43.594Z,1.57
2023-03-29T12:28:16.591Z,0.60
2023-03-29T12:30:46.898Z,1.20
2023-03-29T12:33:22.615Z,1.33
2023-03-29T12:36:14.118Z,1.00
2023-03-29T12:38:52.354Z,1.10
2023-03-29T12:42:04.294Z,2.05
2023-03-29T12:44:52.820Z,1.47
2023-03-29T12:47:27.777Z,1.00
2023-03-29T12:49:57.774Z,1.00
2023-03-29T12:52:35.830Z,1.47
2023-03-29T12:55:06.036Z,1.40
2023-03-29T12:57:36.190Z,1.53
2023-03-29T13:00:10.511Z,0.90
2023-03-29T13:02:39.707Z,1.22
2023-03-29T13:05:09.932Z,1.27
2023-03-29T13:07:47.101Z,1.20
2023-03-29T13:10:33.564Z,1.53
2023-03-29T13:13:04.418Z,1.17
2023-03-29T13:15:34.349Z,1.20
2023-03-29T13:18:04.488Z,1.10
2023-03-29T13:20:40.252Z,1.03
2023-03-29T13:23:17.618Z,1.27
2023-03-29T13:26:00.137Z,1.50
2023-03-29T13:28:46.664Z,1.37
2023-03-29T13:31:22.361Z,1.20
2023-03-29T13:34:08.814Z,0.97
2023-03-29T13:36:51.144Z,1.07
2023-03-29T13:39:24.108Z,1.13
2023-03-29T13:41:54.181Z,1.37
2023-03-29T13:44:25.471Z,1.03
2023-03-29T13:46:58.762Z,0.93
2023-03-29T13:49:29.137Z,1.47
2023-03-29T13:52:15.697Z,0.90
2023-03-29T13:54:45.739Z,1.43
2023-03-29T13:57:18.754Z,0.77
2023-03-29T13:59:52.057Z,1.07
2023-03-29T14:02:34.437Z,0.93
2023-03-29T14:05:04.083Z,0.70
2023-03-29T14:07:34.050Z,1.13
2023-03-29T14:10:02.779Z,1.47
2023-03-29T14:12:33.156Z,1.00
2023-03-29T14:15:03.484Z,1.37
2023-03-29T14:17:32.364Z,1.17
2023-03-29T14:20:01.645Z,1.03
2023-03-29T14:22:31.140Z,1.37
2023-03-29T14:25:01.248Z,1.23
2023-03-29T14:27:31.692Z,1.10
2023-03-29T14:30:00.635Z,1.10
2023-03-29T14:32:30.448Z,1.20
2023-03-29T14:35:00.981Z,0.60
2023-03-29T14:37:29.285Z,0.97
2023-03-29T14:39:59.262Z,1.37
2023-03-29T14:42:29.013Z,1.17
2023-03-29T14:45:04.757Z,1.23
2023-03-29T14:47:34.054Z,1.63
2023-03-29T14:50:03.820Z,1.20
2023-03-29T14:52:32.518Z,1.63
2023-03-29T14:55:02.268Z,1.00
2023-03-29T14:57:35.032Z,1.53
2023-03-29T15:00:09.188Z,0.93
2023-03-29T15:02:37.874Z,1.30
2023-03-29T15:05:07.583Z,1.27
2023-03-29T15:07:37.484Z,1.22
2023-03-29T15:10:06.572Z,1.20
2023-03-29T15:12:36.563Z,0.97
2023-03-29T15:15:06.871Z,1.13
2023-03-29T15:17:50.458Z,0.97
2023-03-29T15:20:30.625Z,1.20
2023-03-29T15:23:04.371Z,1.17
2023-03-29T15:25:34.419Z,0.80
2023-03-29T15:28:02.949Z,1.10
2023-03-29T15:30:39.171Z,1.00
2023-03-29T15:33:24.087Z,1.10
2023-03-29T15:35:54.302Z,1.23
2023-03-29T15:38:30.239Z,1.57
2023-03-29T15:40:53.516Z,1.35
2023-03-29T15:43:22.618Z,1.20
2023-03-29T15:45:51.296Z,0.90
2023-03-29T15:48:24.160Z,1.33
2023-03-29T15:50:53.086Z,1.03
2023-03-29T15:53:23.286Z,1.07
2023-03-29T15:55:52.580Z,1.30
2023-03-29T15:58:23.756Z,1.47
2023-03-29T16:00:53.935Z,1.57
2023-03-29T16:03:22.468Z,1.20
2023-03-29T16:05:52.654Z,1.47
2023-03-29T16:08:20.973Z,1.77
2023-03-29T16:10:49.561Z,1.43
2023-03-29T16:13:18.436Z,1.95
2023-03-29T16:15:47.004Z,1.70
2023-03-29T16:18:15.458Z,1.70
2023-03-29T16:20:44.270Z,2.03
2023-03-29T16:23:12.959Z,1.83
2023-03-29T16:25:41.509Z,1.60
2023-03-29T16:28:10.079Z,2.12
2023-03-29T16:30:38.738Z,1.90
2023-03-29T16:33:08.434Z,2.07
2023-03-29T16:35:39.641Z,1.72
2023-03-29T16:38:08.990Z,1.80
2023-03-29T16:40:37.469Z,1.90
2023-03-29T16:43:06.215Z,1.87
2023-03-29T16:45:35.105Z,1.60
2023-03-29T16:48:04.938Z,2.97
2023-03-29T16:50:33.943Z,2.10
2023-03-29T16:53:02.592Z,2.57
2023-03-29T16:55:31.100Z,2.07
2023-03-29T16:57:59.704Z,2.60
2023-03-29T17:00:29.040Z,2.50
2023-03-29T17:02:57.601Z,2.00
2023-03-29T17:05:26.456Z,2.30
2023-03-29T17:07:56.205Z,1.70
2023-03-29T17:10:25.601Z,1.73
2023-03-29T17:12:54.151Z,2.13
2023-03-29T17:15:23.017Z,2.37
2023-03-29T17:17:51.826Z,2.00
2023-03-29T17:20:20.174Z,1.93
2023-03-29T17:22:50.441Z,2.20
2023-03-29T17:25:18.858Z,2.20
2023-03-29T17:27:47.356Z,2.20
2023-03-29T17:30:16.088Z,2.67
2023-03-29T17:32:45.653Z,2.42
2023-03-29T17:35:14.244Z,2.33
2023-03-29T17:37:42.822Z,1.87
2023-03-29T17:40:13.337Z,1.90
2023-03-29T17:42:42.070Z,2.20
2023-03-29T17:45:11.324Z,1.85
2023-03-29T17:47:40.884Z,2.40
2023-03-29T17:50:10.304Z,1.80
2023-03-29T17:52:42.151Z,1.33
2023-03-29T17:55:12.734Z,1.50
2023-03-29T17:57:42.183Z,1.67
2023-03-29T18:00:12.141Z,2.53
2023-03-29T18:02:41.352Z,1.72
2023-03-29T18:05:12.401Z,2.67
2023-03-29T18:07:40.893Z,2.35
2023-03-29T18:10:09.541Z,1.70
2023-03-29T18:12:38.048Z,1.57
2023-03-29T18:15:06.874Z,2.10
2023-03-29T18:17:38.189Z,2.23
2023-03-29T18:20:08.507Z,2.07
2023-03-29T18:22:36.821Z,2.00
2023-03-29T18:25:06.939Z,2.40
2023-03-29T18:27:36.124Z,3.70
2023-03-29T18:30:04.835Z,3.67
2023-03-29T18:32:33.764Z,2.45
2023-03-29T18:35:03.074Z,2.25
2023-03-29T18:37:31.865Z,2.17
2023-03-29T18:40:00.978Z,2.55
2023-03-29T18:42:29.493Z,2.83
2023-03-29T18:44:58.016Z,2.73
2023-03-29T18:47:27.137Z,2.10
2023-03-29T18:49:55.900Z,1.87
2023-03-29T18:52:24.499Z,2.30
2023-03-29T18:54:53.550Z,3.20
2023-03-29T18:57:22.329Z,2.60
2023-03-29T18:59:51.419Z,2.87
2023-03-29T19:02:19.817Z,2.33
2023-03-29T19:04:48.708Z,3.40
2023-03-29T19:07:17.761Z,2.27
2023-03-29T19:09:46.323Z,2.50
2023-03-29T19:12:15.292Z,2.72
2023-03-29T19:14:44.086Z,2.22
2023-03-29T19:17:12.888Z,2.15
2023-03-29T19:19:41.682Z,2.45
2023-03-29T19:22:09.913Z,2.83
2023-03-29T19:24:38.423Z,2.73
2023-03-29T19:27:09.645Z,2.37
2023-03-29T19:29:38.643Z,2.63
2023-03-29T19:32:06.904Z,2.23
2023-03-29T19:34:35.485Z,3.80
2023-03-29T19:37:04.717Z,2.83
2023-03-29T19:39:33.531Z,3.47
2023-03-29T19:42:02.429Z,2.85
2023-03-29T19:44:31.096Z,2.93
2023-03-29T19:46:59.684Z,2.90
2023-03-29T19:49:28.595Z,2.75
2023-03-29T19:51:58.087Z,3.08
2023-03-29T19:54:27.056Z,2.80
2023-03-29T19:56:57.359Z,2.80
2023-03-29T19:59:27.143Z,2.77
2023-03-29T20:01:56.749Z,2.77
2023-03-29T20:04:25.948Z,3.03
2023-03-29T20:06:54.910Z,2.98
2023-03-29T20:09:23.272Z,3.03
2023-03-29T20:11:51.777Z,3.63
2023-03-29T20:14:20.315Z,2.60
2023-03-29T20:16:53.997Z,2.92
2023-03-29T20:19:24.768Z,2.60
2023-03-29T20:21:55.170Z,2.60
2023-03-29T20:24:24.108Z,2.63
2023-03-29T20:26:53.105Z,2.90
2023-03-29T20:29:21.917Z,2.80
2023-03-29T20:31:50.769Z,3.25
2023-03-29T20:34:19.172Z,3.20
2023-03-29T20:36:47.798Z,3.30
2023-03-29T20:39:19.755Z,2.90
2023-03-29T20:41:48.569Z,2.60
2023-03-29T20:44:17.071Z,3.43
2023-03-29T20:46:47.690Z,3.37
2023-03-29T20:49:15.965Z,3.57
2023-03-29T20:51:44.464Z,3.43
2023-03-29T20:54:12.829Z,2.77
2023-03-29T20:56:42.284Z,3.03
2023-03-29T20:59:11.059Z,3.70
2023-03-29T21:01:42.818Z,2.65
2023-03-29T21:04:11.295Z,2.98
2023-03-29T21:06:39.809Z,3.33
2023-03-29T21:09:08.500Z,2.50
2023-03-29T21:11:37.273Z,2.80
2023-03-29T21:14:05.508Z,2.60
2023-03-29T21:16:34.015Z,2.87
2023-03-29T21:19:02.577Z,2.50
2023-03-29T21:21:31.036Z,2.97
2023-03-29T21:23:59.540Z,2.53
2023-03-29T21:26:28.684Z,3.43
2023-03-29T21:28:57.163Z,4.33
2023-03-29T21:31:26.106Z,4.08
2023-03-29T21:33:56.171Z,3.37
2023-03-29T21:36:24.593Z,2.37
2023-03-29T21:38:53.391Z,3.33
2023-03-29T21:41:21.913Z,4.47
2023-03-29T21:43:50.563Z,4.13
2023-03-29T21:46:19.417Z,4.10
2023-03-29T21:48:48.278Z,3.52
2023-03-29T21:51:17.154Z,3.40
2023-03-29T21:53:46.040Z,4.75
2023-03-29T21:56:14.948Z,4.12
2023-03-29T21:58:43.769Z,4.75
2023-03-29T22:01:11.984Z,4.30
2023-03-29T22:03:40.884Z,3.98
2023-03-29T22:06:12.409Z,4.17
2023-03-29T22:08:41.304Z,4.10
2023-03-29T22:11:11.075Z,5.00
2023-03-29T22:13:39.983Z,4.00
2023-03-29T22:16:09.272Z,4.00
2023-03-29T22:18:42.676Z,3.30
2023-03-29T22:21:13.725Z,3.60
2023-03-29T22:26:11.071Z,3.55
2023-03-29T22:28:39.844Z,2.90
2023-03-29T22:31:09.429Z,4.07
2023-03-29T22:33:39.605Z,3.97
2023-03-29T22:36:09.432Z,3.97
2023-03-29T22:38:38.415Z,3.12
2023-03-29T22:41:06.626Z,3.63
2023-03-29T22:43:36.382Z,4.03
2023-03-29T22:46:05.868Z,4.20
2023-03-29T22:48:34.432Z,3.13
2023-03-29T22:51:03.609Z,3.60
2023-03-29T22:53:32.674Z,3.70
2023-03-29T22:56:01.275Z,3.70
2023-03-29T22:58:30.052Z,3.67
2023-03-29T23:00:58.669Z,3.40
2023-03-29T23:03:27.243Z,3.77
2023-03-29T23:05:57.244Z,3.20
2023-03-29T23:08:26.103Z,3.13
2023-03-29T23:10:54.622Z,3.67
2023-03-29T23:13:29.384Z,3.53
2023-03-29T23:15:59.776Z,3.97
2023-03-29T23:18:29.479Z,3.50
2023-03-29T23:20:58.898Z,3.33
2023-03-29T23:23:28.935Z,3.37
2023-03-29T23:25:57.821Z,3.60
2023-03-29T23:28:28.940Z,3.87
2023-03-29T23:31:04.969Z,3.72
2023-03-29T23:33:34.919Z,3.50
2023-03-29T23:36:04.541Z,4.03
2023-03-29T23:38:34.528Z,3.62
2023-03-29T23:41:05.014Z,3.85
2023-03-29T23:43:34.997Z,3.53
2023-03-29T23:46:08.026Z,3.90
2023-03-29T23:48:36.875Z,3.40
2023-03-29T23:51:07.636Z,4.07
2023-03-29T23:53:36.600Z,4.15
2023-03-29T23:56:05.753Z,4.27
2023-03-29T23:58:35.190Z,3.33
